Time;durP1;ratioP1;P1;durP2;ratioP2;P2;SDS_P1;SDS_P2;PMS_P1;PMS_P2;Temp;Humidity;BMP_temperature;BMP_pressure;BME280_temperature;BME280_humidity;BME280_pressure;Samples;Min_cycle;Max_cycle;Signal;HPM_P1;HPM_P2
2022/09/24 00:01:32;;;;;;;90.53;65.18;;;12.30;99.90;;;;;;6189231;23;20095;-84
2022/09/24 00:04:01;;;;;;;86.55;63.78;;;12.80;99.90;;;;;;6189247;23;20013;-84
2022/09/24 00:06:28;;;;;;;80.32;58.90;;;12.30;99.90;;;;;;6215777;23;20512;-84
2022/09/24 00:08:56;;;;;;;76.28;55.30;;;12.30;99.90;;;;;;6216749;23;20023;-84
2022/09/24 00:11:24;;;;;;;76.15;54.25;;;13.50;99.90;;;;;;6188761;23;20322;-84
2022/09/24 00:13:51;;;;;;;71.45;51.78;;;12.40;99.90;;;;;;6189444;23;20017;-84
2022/09/24 00:16:19;;;;;;;74.43;52.67;;;12.40;99.90;;;;;;6189348;23;20017;-84
2022/09/24 00:18:44;;;;;;;70.70;50.35;;;12.40;99.90;;;;;;6188766;23;20016;-84
2022/09/24 00:21:20;;;;;;;71.55;51.88;;;12.40;99.90;;;;;;6216233;23;20405;-84
2022/09/24 00:23:52;;;;;;;69.70;47.80;;;12.50;99.90;;;;;;6189015;23;20048;-84
2022/09/24 00:29:03;;;;;;;69.25;47.05;;;12.50;99.90;;;;;;6215955;23;20441;-84
2022/09/24 00:31:34;;;;;;;67.13;45.15;;;12.60;99.90;;;;;;6188903;23;20070;-84
2022/09/24 00:34:03;;;;;;;62.10;42.22;;;12.40;99.90;;;;;;6189457;23;20023;-84
2022/09/24 00:36:28;;;;;;;61.60;41.97;;;12.40;99.90;;;;;;6189151;23;20023;-84
2022/09/24 00:38:57;;;;;;;59.90;40.92;;;12.80;99.90;;;;;;6189135;23;20009;-84
2022/09/24 00:41:30;;;;;;;57.97;37.88;;;12.50;99.90;;;;;;6215022;23;20458;-84
2022/09/24 00:43:56;;;;;;;60.63;39.35;;;13.00;99.90;;;;;;6216074;23;20448;-84
2022/09/24 00:46:36;;;;;;;55.95;36.08;;;13.30;99.90;;;;;;6187900;23;20407;-84
2022/09/24 00:49:10;;;;;;;54.35;35.83;;;12.50;99.90;;;;;;6184262;23;20016;-84
2022/09/24 00:51:40;;;;;;;57.72;35.88;;;12.50;99.90;;;;;;6186372;23;20087;-84
2022/09/24 00:54:13;;;;;;;58.08;36.17;;;12.50;99.90;;;;;;6183284;23;20021;-84
2022/09/24 00:56:42;;;;;;;53.25;34.67;;;12.50;99.90;;;;;;6184148;23;20027;-84
2022/09/24 00:59:10;;;;;;;52.53;33.83;;;12.60;99.90;;;;;;6206338;23;20024;-84
2022/09/24 01:01:36;;;;;;;53.63;34.45;;;14.10;99.90;;;;;;6215806;23;20021;-84
2022/09/24 01:04:04;;;;;;;58.30;34.30;;;12.60;99.90;;;;;;6189288;23;20440;-84
2022/09/24 01:06:30;;;;;;;52.60;34.30;;;12.60;99.90;;;;;;6212623;22;20009;-83
2022/09/24 01:09:02;;;;;;;54.53;35.10;;;12.90;99.90;;;;;;6186110;23;20055;-84
2022/09/24 01:11:43;;;;;;;56.47;35.45;;;12.70;99.90;;;;;;6185421;23;20018;-84
2022/09/24 01:14:33;;;;;;;58.85;35.45;;;13.60;99.90;;;;;;6183282;23;20071;-84
2022/09/24 01:17:20;;;;;;;60.25;35.38;;;12.70;99.90;;;;;;6184052;23;20075;-84
2022/09/24 01:20:08;;;;;;;56.08;34.72;;;12.70;99.90;;;;;;6186323;23;20021;-84
2022/09/24 01:22:58;;;;;;;58.42;34.70;;;12.80;99.90;;;;;;6183921;23;20017;-84
2022/09/24 01:25:50;;;;;;;55.78;34.08;;;12.70;99.90;;;;;;6185695;23;20101;-84
2022/09/24 01:29:07;;;;;;;52.65;33.47;;;12.70;99.90;;;;;;6182988;22;20393;-84
2022/09/24 01:31:45;;;;;;;53.65;33.88;;;12.70;99.90;;;;;;6183666;23;20091;-84
2022/09/24 01:37:08;;;;;;;55.00;33.45;;;12.70;99.90;;;;;;6188011;23;20025;-84
2022/09/24 01:39:36;;;;;;;55.47;34.33;;;12.70;99.90;;;;;;6188621;23;20016;-84
2022/09/24 01:42:03;;;;;;;53.65;33.15;;;14.00;99.90;;;;;;6187930;23;20505;-83
2022/09/24 01:44:40;;;;;;;55.63;33.45;;;12.70;99.90;;;;;;6186249;22;20017;-83
2022/09/24 01:47:08;;;;;;;54.05;33.40;;;13.40;99.90;;;;;;6155724;23;20024;-83
2022/09/24 01:49:33;;;;;;;57.72;34.03;;;12.70;99.90;;;;;;6184707;22;20017;-83
2022/09/24 01:52:06;;;;;;;53.33;33.22;;;12.70;99.90;;;;;;6185497;23;20032;-83
2022/09/24 01:54:38;;;;;;;54.33;32.90;;;13.00;99.90;;;;;;6184077;23;20096;-83
2022/09/24 01:57:30;;;;;;;53.83;33.67;;;12.70;99.90;;;;;;6181676;22;20024;-83
2022/09/24 02:00:04;;;;;;;56.45;33.70;;;12.70;99.90;;;;;;6183602;23;20020;-83
2022/09/24 02:02:39;;;;;;;52.72;33.42;;;12.70;99.90;;;;;;6184226;23;20739;-83
2022/09/24 02:05:11;;;;;;;56.28;33.88;;;12.70;99.90;;;;;;6183115;23;20028;-84
2022/09/24 02:07:43;;;;;;;53.60;33.03;;;12.70;99.90;;;;;;6183870;23;20017;-83
2022/09/24 02:10:15;;;;;;;53.97;33.83;;;12.80;99.90;;;;;;6182604;23;20337;-83
2022/09/24 02:12:51;;;;;;;55.58;32.90;;;13.40;99.90;;;;;;6182330;22;20021;-83
2022/09/24 02:15:38;;;;;;;54.75;32.40;;;13.80;99.90;;;;;;6183195;23;20567;-83
2022/09/24 02:18:10;;;;;;;50.45;33.33;;;13.00;99.90;;;;;;6184035;23;20020;-83
2022/09/24 02:20:38;;;;;;;56.22;32.95;;;12.70;99.90;;;;;;6183550;23;20017;-83
2022/09/24 02:23:06;;;;;;;52.53;33.05;;;12.70;99.90;;;;;;6185400;23;20024;-83
2022/09/24 02:25:50;;;;;;;53.58;32.35;;;12.60;99.90;;;;;;6184469;23;20098;-83
2022/09/24 02:28:19;;;;;;;53.65;32.20;;;12.60;99.90;;;;;;6181333;22;20060;-84
2022/09/24 02:31:00;;;;;;;52.92;31.40;;;13.80;99.90;;;;;;6185204;23;20013;-84
2022/09/24 02:36:12;;;;;;;54.35;33.67;;;12.70;99.90;;;;;;6182643;23;20029;-83
2022/09/24 02:38:37;;;;;;;56.60;34.47;;;13.50;99.90;;;;;;6182538;23;20017;-84
2022/09/24 02:41:07;;;;;;;59.08;33.92;;;12.70;99.90;;;;;;6182895;23;20039;-84
2022/09/24 02:43:34;;;;;;;54.47;32.17;;;12.60;99.90;;;;;;6183474;23;20024;-84
2022/09/24 02:46:00;;;;;;;55.90;33.20;;;12.60;99.90;;;;;;6182173;23;20009;-83
2022/09/24 02:48:26;;;;;;;55.88;33.17;;;12.60;99.90;;;;;;6182832;23;20168;-84
2022/09/24 02:50:52;;;;;;;57.47;33.65;;;12.60;99.90;;;;;;6183565;23;20311;-83
2022/09/24 02:53:18;;;;;;;59.00;34.38;;;12.60;99.90;;;;;;6188538;22;20011;-83
2022/09/24 02:55:44;;;;;;;54.05;33.28;;;13.00;99.90;;;;;;6187785;23;20044;-83
2022/09/24 02:58:10;;;;;;;56.15;34.03;;;12.70;99.90;;;;;;6188111;23;20020;-83
2022/09/24 03:00:35;;;;;;;55.85;34.25;;;13.20;99.90;;;;;;6187105;23;20042;-83
2022/09/24 03:03:01;;;;;;;57.78;34.17;;;12.50;99.90;;;;;;6188083;23;20021;-83
2022/09/24 03:05:27;;;;;;;63.05;34.55;;;12.60;99.90;;;;;;6188385;23;20024;-84
2022/09/24 03:10:28;;;;;;;60.55;35.28;;;12.50;99.90;;;;;;6202205;22;20021;-84
2022/09/24 03:17:18;;;;;;;61.13;36.13;;;12.60;99.90;;;;;;6184762;23;20032;-83
2022/09/24 03:19:43;;;;;;;63.20;36.80;;;12.50;99.90;;;;;;6182287;23;20021;-83
2022/09/24 03:22:09;;;;;;;60.55;35.35;;;14.00;99.90;;;;;;6184124;23;20020;-83
2022/09/24 03:24:47;;;;;;;60.00;36.45;;;12.50;99.90;;;;;;6185119;23;20013;-83
2022/09/24 03:27:12;;;;;;;63.40;36.08;;;13.90;99.90;;;;;;6181825;23;20497;-83
2022/09/24 03:32:22;;;;;;;;;;;13.70;99.90;;;;;;6185314;23;20057;-83
2022/09/24 03:34:48;;;;;;;63.15;37.65;;;12.60;99.90;;;;;;6182437;23;19923;-83
2022/09/24 03:37:13;;;;;;;61.45;36.45;;;13.10;99.90;;;;;;6184243;23;20461;-83
2022/09/24 03:39:39;;;;;;;64.63;36.42;;;12.50;99.90;;;;;;6183628;23;20009;-83
2022/09/24 03:42:04;;;;;;;61.78;35.08;;;12.50;99.90;;;;;;6186752;23;20030;-83
2022/09/24 03:44:30;;;;;;;61.90;36.45;;;12.60;99.90;;;;;;6184647;23;20011;-83
2022/09/24 03:46:55;;;;;;;65.15;36.65;;;12.60;99.90;;;;;;6184658;23;20021;-83
2022/09/24 03:49:22;;;;;;;65.95;36.45;;;12.60;99.90;;;;;;6181774;23;20052;-83
2022/09/24 03:51:49;;;;;;;61.38;36.38;;;13.60;99.90;;;;;;6182807;23;20402;-83
2022/09/24 03:54:15;;;;;;;69.78;39.47;;;13.00;99.90;;;;;;6182329;23;20373;-83
2022/09/24 03:56:41;;;;;;;73.97;39.90;;;12.60;99.90;;;;;;6181723;23;20342;-83
2022/09/24 03:59:09;;;;;;;62.08;36.50;;;12.60;99.90;;;;;;6182233;23;20036;-83
2022/09/24 04:01:36;;;;;;;58.42;34.47;;;13.40;99.90;;;;;;6182010;23;20021;-83
2022/09/24 04:04:03;;;;;;;62.58;34.83;;;12.60;99.90;;;;;;6181015;23;20017;-83
2022/09/24 04:06:28;;;;;;;57.35;34.65;;;13.70;99.90;;;;;;6181559;23;20017;-84
2022/09/24 04:08:57;;;;;;;67.78;39.28;;;12.60;99.90;;;;;;6183789;23;20047;-83
2022/09/24 04:11:23;;;;;;;59.60;36.10;;;13.30;99.90;;;;;;6181480;23;20445;-83
2022/09/24 04:13:49;;;;;;;61.22;34.55;;;12.70;99.90;;;;;;6182974;23;20028;-83
2022/09/24 04:16:15;;;;;;;54.50;32.88;;;12.60;99.90;;;;;;6181586;23;20374;-84
2022/09/24 04:18:41;;;;;;;52.92;32.30;;;12.70;99.90;;;;;;6182553;23;20091;-83
2022/09/24 04:21:08;;;;;;;54.47;32.40;;;12.70;99.90;;;;;;6184618;23;20021;-83
2022/09/24 04:23:36;;;;;;;55.05;31.88;;;12.70;99.90;;;;;;6184195;23;20404;-83
2022/09/24 04:26:02;;;;;;;55.50;32.03;;;13.00;99.90;;;;;;6184111;23;20060;-83
2022/09/24 04:28:29;;;;;;;53.00;31.40;;;13.60;99.90;;;;;;6184288;23;20024;-83
2022/09/24 04:30:54;;;;;;;54.33;31.25;;;12.70;99.90;;;;;;6184047;23;20028;-83
2022/09/24 04:33:20;;;;;;;52.80;31.48;;;13.20;99.90;;;;;;6183678;23;20345;-84
2022/09/24 04:35:46;;;;;;;49.58;29.73;;;12.70;99.90;;;;;;6184554;23;20013;-83
2022/09/24 04:38:35;;;;;;;;;;;;;;;;;;;;;
2022/09/24 04:41:08;;;;;;;47.97;29.55;;;12.70;99.90;;;;;;6178093;23;20076;-83
2022/09/24 04:43:35;;;;;;;47.77;29.40;;;12.70;99.90;;;;;;6186593;23;20014;-84
2022/09/24 04:46:02;;;;;;;45.33;28.92;;;12.70;99.90;;;;;;6183523;23;20020;-83
2022/09/24 04:48:28;;;;;;;48.58;28.77;;;13.80;99.90;;;;;;6183993;23;20021;-83
2022/09/24 04:50:54;;;;;;;47.00;28.27;;;13.10;99.90;;;;;;6184498;23;20021;-83
2022/09/24 04:53:20;;;;;;;44.90;26.77;;;12.70;99.90;;;;;;6184875;23;20024;-83
2022/09/24 04:55:46;;;;;;;43.33;27.80;;;13.00;99.90;;;;;;6184335;23;20396;-83
2022/09/24 04:58:12;;;;;;;44.50;27.13;;;12.70;99.90;;;;;;6185395;23;20017;-83
2022/09/24 05:00:37;;;;;;;45.38;27.75;;;12.70;99.90;;;;;;6184293;23;20021;-83
2022/09/24 05:03:03;;;;;;;45.13;27.30;;;13.50;99.90;;;;;;6184045;23;20021;-83
2022/09/24 05:05:31;;;;;;;43.67;26.15;;;12.70;99.90;;;;;;6183184;23;20017;-83
2022/09/24 05:07:57;;;;;;;52.95;31.13;;;13.70;99.90;;;;;;6185753;23;20010;-83
2022/09/24 05:10:24;;;;;;;39.00;20.88;;;12.70;99.90;;;;;;6183242;23;20029;-83
2022/09/24 05:12:50;;;;;;;33.45;17.50;;;13.10;99.90;;;;;;6183786;23;20388;-83
2022/09/24 05:15:18;;;;;;;30.00;15.93;;;13.80;99.90;;;;;;6183217;23;20017;-83
2022/09/24 05:17:44;;;;;;;32.33;17.10;;;12.70;99.90;;;;;;6184328;23;20032;-83
2022/09/24 05:20:10;;;;;;;32.70;16.52;;;13.50;99.90;;;;;;6182442;23;20019;-83
2022/09/24 05:22:43;;;;;;;30.13;15.80;;;12.60;99.90;;;;;;6185774;23;20024;-83
2022/09/24 05:25:09;;;;;;;33.75;16.25;;;12.70;99.90;;;;;;6183304;23;20037;-83
2022/09/24 05:27:35;;;;;;;33.33;17.10;;;12.60;99.90;;;;;;6183218;23;20345;-83
2022/09/24 05:30:01;;;;;;;31.90;16.48;;;13.10;99.90;;;;;;6185410;23;20013;-83
2022/09/24 05:32:27;;;;;;;31.75;15.98;;;12.60;99.90;;;;;;6183279;23;20030;-83
2022/09/24 05:34:52;;;;;;;32.28;17.38;;;12.60;99.90;;;;;;6183012;23;20021;-83
2022/09/24 05:37:19;;;;;;;30.88;16.90;;;12.70;99.90;;;;;;6182517;23;20032;-83
2022/09/24 05:39:44;;;;;;;30.90;15.48;;;12.60;99.90;;;;;;6185961;23;20017;-83
2022/09/24 05:42:13;;;;;;;36.13;18.50;;;12.60;99.90;;;;;;6184538;23;20013;-83
2022/09/24 05:44:39;;;;;;;33.47;16.65;;;13.50;99.90;;;;;;6184009;23;20438;-83
2022/09/24 05:47:08;;;;;;;32.80;17.00;;;12.70;99.90;;;;;;6183578;23;20047;-83
2022/09/24 05:49:34;;;;;;;36.30;19.25;;;12.70;99.90;;;;;;6183110;23;20020;-83
2022/09/24 05:52:00;;;;;;;37.25;20.10;;;13.30;99.90;;;;;;6183918;23;20020;-83
2022/09/24 05:54:26;;;;;;;36.65;20.80;;;12.70;99.90;;;;;;6182888;23;20025;-84
2022/09/24 05:56:52;;;;;;;36.38;20.85;;;12.70;99.90;;;;;;6183764;23;20074;-81
2022/09/24 05:59:17;;;;;;;39.63;20.00;;;12.70;99.90;;;;;;6184981;23;20017;-81
2022/09/24 06:01:43;;;;;;;36.42;19.95;;;12.70;99.90;;;;;;6182869;23;20013;-81
2022/09/24 06:04:11;;;;;;;36.00;19.83;;;12.70;99.90;;;;;;6182761;23;20013;-82
2022/09/24 06:06:37;;;;;;;39.08;20.75;;;12.70;99.90;;;;;;6183230;23;20021;-81
2022/09/24 06:09:03;;;;;;;36.72;20.40;;;13.30;99.90;;;;;;6182964;23;20013;-81
2022/09/24 06:11:33;;;;;;;39.78;20.73;;;12.70;99.90;;;;;;6182747;23;20013;-81
2022/09/24 06:14:01;;;;;;;35.80;19.52;;;13.90;99.90;;;;;;6183593;23;20016;-81
2022/09/24 06:16:27;;;;;;;39.17;20.42;;;12.80;99.90;;;;;;6182010;23;20021;-81
2022/09/24 06:18:56;;;;;;;39.90;20.55;;;12.80;99.90;;;;;;6187258;22;20051;-81
2022/09/24 06:21:21;;;;;;;39.10;21.70;;;12.30;99.90;;;;;;6215151;23;20062;-81
2022/09/24 06:23:47;;;;;;;42.50;22.33;;;12.80;99.90;;;;;;6187794;23;20009;-81
2022/09/24 06:26:13;;;;;;;40.47;20.75;;;12.80;99.90;;;;;;6187870;23;20020;-82
2022/09/24 06:32:01;;;;;;;41.25;19.98;;;12.80;99.90;;;;;;6212875;22;20025;-83
2022/09/24 06:34:27;;;;;;;40.90;21.10;;;12.90;99.90;;;;;;6215220;23;20028;-83
2022/09/24 06:36:54;;;;;;;41.72;21.17;;;12.90;99.90;;;;;;6187853;23;20333;-81
2022/09/24 06:39:25;;;;;;;41.58;20.85;;;12.90;99.90;;;;;;6187950;23;20012;-81
2022/09/24 06:41:52;;;;;;;39.75;19.80;;;12.90;99.90;;;;;;6215274;23;20016;-81
2022/09/24 06:44:18;;;;;;;45.20;21.55;;;12.90;99.90;;;;;;6187431;23;20086;-82
2022/09/24 06:46:44;;;;;;;42.53;21.13;;;13.00;99.90;;;;;;6215153;23;20023;-82
2022/09/24 06:49:11;;;;;;;44.33;21.85;;;12.90;99.90;;;;;;6214544;23;20028;-83
2022/09/24 06:51:36;;;;;;;48.30;22.60;;;12.90;99.90;;;;;;6214283;23;20017;-81
2022/09/24 06:54:02;;;;;;;53.63;26.05;;;12.90;99.90;;;;;;6188297;23;20016;-81
2022/09/24 06:56:29;;;;;;;41.47;20.10;;;12.90;99.90;;;;;;6214606;23;20016;-81
2022/09/24 06:58:55;;;;;;;41.72;19.88;;;13.00;99.90;;;;;;6187668;23;20019;-82
2022/09/24 07:01:21;;;;;;;43.72;20.35;;;13.00;99.90;;;;;;6214584;23;20385;-82
2022/09/24 07:03:46;;;;;;;43.40;21.17;;;13.00;99.90;;;;;;6187853;23;20464;-82
2022/09/24 07:06:12;;;;;;;45.20;21.98;;;13.00;99.90;;;;;;6186405;23;20472;-81
2022/09/24 07:08:38;;;;;;;45.22;20.85;;;13.00;99.90;;;;;;6188088;23;20515;-82
2022/09/24 07:11:04;;;;;;;44.22;21.35;;;13.00;99.90;;;;;;6214801;23;20027;-82
2022/09/24 07:13:29;;;;;;;42.08;20.80;;;13.00;99.90;;;;;;6185886;23;20013;-82
2022/09/24 07:15:55;;;;;;;38.05;20.10;;;13.00;99.90;;;;;;6187795;23;20016;-82
2022/09/24 07:18:21;;;;;;;39.83;19.92;;;13.00;99.90;;;;;;6186589;23;20409;-82
2022/09/24 07:20:57;;;;;;;42.22;20.60;;;13.00;99.90;;;;;;6186953;23;20016;-82
2022/09/24 07:23:26;;;;;;;64.18;34.30;;;13.10;99.90;;;;;;6187773;23;20347;-83
2022/09/24 07:25:56;;;;;;;47.38;24.30;;;13.00;99.90;;;;;;6214125;23;20389;-81
2022/09/24 07:28:21;;;;;;;45.58;22.33;;;13.20;99.90;;;;;;6186577;23;20020;-82
2022/09/24 07:30:56;;;;;;;45.33;21.77;;;13.20;99.90;;;;;;6188617;23;20044;-82
2022/09/24 07:33:21;;;;;;;45.58;23.60;;;13.30;99.90;;;;;;6214232;23;20020;-82
2022/09/24 07:35:47;;;;;;;46.00;24.08;;;13.30;99.90;;;;;;6215047;23;20017;-82
2022/09/24 07:38:13;;;;;;;40.03;21.40;;;13.40;99.90;;;;;;6187822;23;20095;-83
2022/09/24 07:40:39;;;;;;;43.97;23.13;;;13.30;99.90;;;;;;6214432;23;20048;-83
2022/09/24 07:43:05;;;;;;;44.58;23.30;;;13.30;99.90;;;;;;6188402;23;20421;-83
2022/09/24 07:45:32;;;;;;;44.85;23.38;;;13.30;99.90;;;;;;6215119;23;20337;-82
2022/09/24 07:48:02;;;;;;;42.15;22.20;;;13.30;99.90;;;;;;6187613;23;20318;-83
2022/09/24 07:50:31;;;;;;;38.90;19.63;;;13.30;99.90;;;;;;6187970;23;20139;-83
2022/09/24 07:52:58;;;;;;;39.83;21.27;;;13.30;99.90;;;;;;6214994;23;20013;-83
2022/09/24 07:55:24;;;;;;;41.17;22.55;;;13.20;99.90;;;;;;6213901;23;20063;-83
2022/09/24 08:01:38;;;;;;;45.25;24.23;;;13.00;99.90;;;;;;6186013;23;20040;-83
2022/09/24 08:04:03;;;;;;;41.63;21.65;;;13.10;99.90;;;;;;6185466;23;20017;-82
2022/09/24 08:06:32;;;;;;;43.13;21.33;;;13.20;99.90;;;;;;6184927;23;20096;-82
2022/09/24 08:08:58;;;;;;;44.15;20.98;;;13.20;99.90;;;;;;6186084;23;20095;-83
2022/09/24 08:13:56;;;;;;;42.05;22.65;;;13.20;99.90;;;;;;6194093;22;20036;-82
2022/09/24 08:16:25;;;;;;;37.88;20.17;;;13.20;99.90;;;;;;6182647;23;20021;-82
2022/09/24 08:18:52;;;;;;;35.78;18.52;;;13.20;99.90;;;;;;6185139;23;20096;-82
2022/09/24 08:21:18;;;;;;;40.78;21.63;;;13.20;99.90;;;;;;6184210;23;20021;-82
2022/09/24 08:23:44;;;;;;;41.00;20.55;;;13.20;99.90;;;;;;6184107;23;20099;-82
2022/09/24 08:26:11;;;;;;;43.05;20.88;;;13.20;99.90;;;;;;6184394;23;20017;-83
2022/09/24 08:28:38;;;;;;;40.58;20.35;;;13.20;99.90;;;;;;6184751;23;20017;-83
2022/09/24 08:31:08;;;;;;;36.20;18.95;;;13.20;99.90;;;;;;6183991;23;20017;-83
2022/09/24 08:33:35;;;;;;;37.17;20.05;;;13.30;99.90;;;;;;6185198;23;20021;-83
2022/09/24 08:36:03;;;;;;;73.55;34.90;;;13.30;99.90;;;;;;6186200;23;20017;-82
2022/09/24 08:38:29;;;;;;;153.40;75.82;;;13.30;99.90;;;;;;6184369;23;20014;-83
2022/09/24 08:41:10;;;;;;;31.67;16.30;;;13.30;99.90;;;;;;6186738;23;20080;-83
2022/09/24 08:43:54;;;;;;;31.27;15.43;;;13.30;99.90;;;;;;6184514;23;20057;-83
2022/09/24 08:49:44;;;;;;;31.60;15.50;;;13.40;99.90;;;;;;6186759;23;20017;-83
2022/09/24 08:52:32;;;;;;;27.70;14.75;;;13.30;99.90;;;;;;6183563;23;20017;-83
2022/09/24 08:55:03;;;;;;;29.13;14.00;;;13.30;99.90;;;;;;6186565;23;20081;-83
2022/09/24 08:57:45;;;;;;;28.65;14.27;;;13.30;99.90;;;;;;6159304;23;20079;-83
2022/09/24 09:00:15;;;;;;;30.80;16.10;;;13.40;99.90;;;;;;6185699;23;20079;-83
2022/09/24 09:03:05;;;;;;;36.50;21.33;;;13.30;99.90;;;;;;6186564;23;20021;-83
2022/09/24 09:05:48;;;;;;;31.15;14.82;;;13.40;99.90;;;;;;6183464;23;20017;-83
2022/09/24 09:08:29;;;;;;;37.30;20.63;;;13.40;99.90;;;;;;6183609;23;20017;-83
2022/09/24 09:11:00;;;;;;;37.30;20.85;;;13.40;99.90;;;;;;6186936;23;20051;-83
2022/09/24 09:13:45;;;;;;;38.72;22.77;;;13.40;99.90;;;;;;6182968;23;20032;-83
2022/09/24 09:16:40;;;;;;;32.33;15.35;;;13.50;99.90;;;;;;6183990;23;20028;-83
2022/09/24 09:19:12;;;;;;;35.90;18.67;;;13.60;99.90;;;;;;6183426;23;20016;-83
2022/09/24 09:22:06;;;;;;;38.72;18.23;;;13.70;99.90;;;;;;6184669;23;20092;-83
2022/09/24 09:24:46;;;;;;;39.45;22.15;;;13.80;99.90;;;;;;6184845;23;20013;-83
2022/09/24 09:27:14;;;;;;;37.50;21.98;;;13.90;99.90;;;;;;6183176;23;20017;-83
2022/09/24 09:29:46;;;;;;;33.28;17.10;;;14.00;99.90;;;;;;6184569;23;20019;-83
2022/09/24 09:32:56;;;;;;;35.40;19.88;;;14.10;99.90;;;;;;6183998;23;20021;-83
2022/09/24 09:36:01;;;;;;;40.80;25.52;;;14.10;99.90;;;;;;6183792;23;20017;-83
2022/09/24 09:38:43;;;;;;;43.08;27.02;;;14.30;99.90;;;;;;6183691;23;20029;-83
2022/09/24 09:41:29;;;;;;;36.67;22.17;;;14.40;99.90;;;;;;6184947;23;20342;-83
2022/09/24 09:44:09;;;;;;;35.00;18.33;;;14.50;99.90;;;;;;6184430;23;20458;-83
2022/09/24 09:46:41;;;;;;;30.55;17.50;;;14.50;99.90;;;;;;6183744;23;20084;-84
2022/09/24 09:49:07;;;;;;;27.10;14.88;;;14.50;99.90;;;;;;6183765;23;20021;-84
2022/09/24 09:51:39;;;;;;;27.27;16.65;;;14.50;99.90;;;;;;6184076;23;20019;-84
2022/09/24 09:54:05;;;;;;;27.27;13.55;;;14.50;99.90;;;;;;6185269;23;20020;-84
2022/09/24 09:56:35;;;;;;;20.20;9.52;;;14.60;99.90;;;;;;6194493;22;20045;-82
2022/09/24 09:59:18;;;;;;;19.30;10.15;;;14.50;99.90;;;;;;6186082;23;20023;-84
2022/09/24 10:01:47;;;;;;;16.92;7.53;;;14.50;99.90;;;;;;6183983;23;20028;-84
2022/09/24 10:04:31;;;;;;;13.77;6.85;;;14.50;99.90;;;;;;6183876;23;20025;-84
2022/09/24 10:07:08;;;;;;;15.10;5.63;;;14.60;99.90;;;;;;6184286;23;20021;-84
2022/09/24 10:09:34;;;;;;;15.00;5.75;;;14.60;99.90;;;;;;6183427;23;20068;-84
2022/09/24 10:12:17;;;;;;;17.80;5.32;;;14.70;99.90;;;;;;6185931;23;20143;-84
2022/09/24 10:14:43;;;;;;;13.02;4.43;;;14.70;99.90;;;;;;6187940;23;20032;-84
2022/09/24 10:17:15;;;;;;;15.35;4.57;;;14.80;99.90;;;;;;6187776;23;20088;-84
2022/09/24 10:19:46;;;;;;;11.88;4.30;;;14.90;99.90;;;;;;6186110;23;20096;-84
2022/09/24 10:22:25;;;;;;;12.07;4.15;;;14.80;99.90;;;;;;6182874;23;20106;-84
2022/09/24 10:25:00;;;;;;;12.77;4.35;;;14.80;99.90;;;;;;6184195;23;20395;-83
2022/09/24 10:27:36;;;;;;;13.48;3.90;;;14.80;99.90;;;;;;6183498;23;20021;-84
2022/09/24 10:30:33;;;;;;;11.80;3.80;;;14.90;99.90;;;;;;6183101;23;20083;-84
2022/09/24 10:33:04;;;;;;;16.63;3.75;;;15.00;99.90;;;;;;6185912;23;20013;-84
2022/09/24 10:35:37;;;;;;;14.95;3.55;;;15.10;99.90;;;;;;6184274;23;20021;-83
2022/09/24 10:38:20;;;;;;;11.18;3.50;;;15.30;99.90;;;;;;6183744;23;20044;-84
2022/09/24 10:40:46;;;;;;;12.85;3.08;;;15.40;99.90;;;;;;6185257;23;20507;-84
2022/09/24 10:43:20;;;;;;;13.52;3.15;;;15.50;99.90;;;;;;6184511;23;20017;-84
2022/09/24 10:52:36;;;;;;;18.55;3.38;;;14.90;99.90;;;;;;6183693;23;20016;-83
2022/09/24 10:55:06;;;;;;;10.73;2.78;;;15.50;99.90;;;;;;6183782;23;20090;-83
2022/09/24 10:57:42;;;;;;;13.32;2.90;;;15.40;99.90;;;;;;6182040;23;20025;-83
2022/09/24 11:00:13;;;;;;;11.43;3.00;;;15.30;99.90;;;;;;6185216;23;20091;-83
2022/09/24 11:03:23;;;;;;;9.25;2.22;;;15.30;99.90;;;;;;6183862;23;20028;-83
2022/09/24 11:05:54;;;;;;;9.75;2.40;;;15.40;99.90;;;;;;6068914;23;20078;-84
2022/09/24 11:08:43;;;;;;;11.63;3.22;;;15.40;99.90;;;;;;6170297;23;20017;-83
2022/09/24 11:11:36;;;;;;;9.82;2.60;;;15.40;99.90;;;;;;6182308;23;20071;-83
2022/09/24 11:14:34;;;;;;;11.35;2.88;;;15.50;99.90;;;;;;6130590;23;20020;-83
2022/09/24 11:17:16;;;;;;;11.98;2.80;;;15.60;99.90;;;;;;6118962;23;20013;-83
2022/09/24 11:20:27;;;;;;;13.02;2.50;;;15.60;99.90;;;;;;6184394;23;20088;-83
2022/09/24 11:23:22;;;;;;;10.75;2.28;;;15.40;99.90;;;;;;6148848;23;20045;-83
2022/09/24 11:27:03;;;;;;;;;;;;;;;;;;;;;
2022/09/24 11:30:38;;;;;;;12.82;2.95;;;14.70;99.90;;;;;;6097124;23;20495;-83
2022/09/24 11:33:44;;;;;;;10.10;2.42;;;14.00;99.90;;;;;;6156794;23;20021;-83
2022/09/24 11:36:25;;;;;;;11.85;2.70;;;14.40;99.90;;;;;;6184887;23;20021;-83
2022/09/24 11:39:20;;;;;;;13.13;3.03;;;14.50;99.90;;;;;;6185741;23;20017;-83
2022/09/24 11:42:19;;;;;;;14.38;3.65;;;14.50;99.90;;;;;;6183219;23;20075;-83
2022/09/24 11:45:21;;;;;;;12.05;2.80;;;14.50;99.90;;;;;;6183492;23;20039;-83
2022/09/24 11:47:58;;;;;;;15.40;2.90;;;14.50;99.90;;;;;;6121598;23;20096;-83
2022/09/24 11:50:29;;;;;;;12.05;2.70;;;14.50;99.90;;;;;;6183059;23;20544;-83
2022/09/24 11:53:10;;;;;;;11.50;2.88;;;14.50;99.90;;;;;;6183626;23;20345;-83
2022/09/24 11:55:44;;;;;;;13.25;2.63;;;14.60;99.90;;;;;;6185135;23;20381;-83
2022/09/24 11:58:15;;;;;;;;;;;14.70;99.90;;;;;;6183335;23;20405;-83
2022/09/24 12:00:54;;;;;;;14.00;2.60;;;14.80;99.90;;;;;;6182530;23;19982;-83
2022/09/24 12:03:35;;;;;;;13.57;2.53;;;14.90;99.90;;;;;;6183165;23;20017;-83
2022/09/24 12:06:12;;;;;;;10.35;2.20;;;15.00;99.90;;;;;;6184758;23;20058;-83
2022/09/24 12:09:03;;;;;;;9.02;2.30;;;15.10;99.90;;;;;;6183954;23;20385;-83
2022/09/24 12:11:46;;;;;;;13.20;2.33;;;15.20;99.90;;;;;;6183068;23;20051;-83
2022/09/24 12:14:21;;;;;;;12.38;2.20;;;15.40;99.90;;;;;;6184241;23;20023;-83
2022/09/24 12:17:26;;;;;;;9.68;2.17;;;15.40;99.90;;;;;;6181952;22;20048;-83
2022/09/24 12:20:20;;;;;;;8.82;1.92;;;15.30;99.90;;;;;;6181556;23;20021;-81
2022/09/24 12:23:01;;;;;;;10.90;2.10;;;15.30;99.90;;;;;;6171798;22;20380;-81
2022/09/24 12:25:31;;;;;;;10.15;2.13;;;15.30;99.90;;;;;;6214882;23;20017;-81
2022/09/24 12:27:59;;;;;;;5.95;1.67;;;15.20;99.90;;;;;;6215056;23;20012;-81
2022/09/24 12:33:28;;;;;;;10.25;2.50;;;15.10;99.90;;;;;;6214632;23;20060;-81
2022/09/24 12:35:54;;;;;;;8.23;2.05;;;15.30;99.90;;;;;;6213602;23;20441;-81
2022/09/24 12:38:29;;;;;;;8.13;1.85;;;15.50;99.90;;;;;;6187793;23;20024;-82
2022/09/24 12:41:04;;;;;;;9.63;1.83;;;15.80;99.90;;;;;;6188287;23;20464;-81
2022/09/24 12:44:04;;;;;;;8.45;2.38;;;16.00;99.90;;;;;;6188553;23;20456;-81
2022/09/24 12:46:34;;;;;;;5.10;1.80;;;16.10;99.90;;;;;;6189627;23;20051;-82
2022/09/24 12:49:00;;;;;;;5.88;1.60;;;15.90;99.90;;;;;;6216832;23;20016;-82
2022/09/24 12:51:37;;;;;;;6.45;1.58;;;15.80;99.90;;;;;;6188740;23;20024;-82
2022/09/24 12:54:23;;;;;;;6.30;1.70;;;15.60;99.90;;;;;;6216949;23;20017;-82
2022/09/24 12:56:49;;;;;;;5.55;1.50;;;15.50;99.90;;;;;;6189169;23;20013;-82
2022/09/24 12:59:27;;;;;;;5.95;1.80;;;15.50;99.90;;;;;;6189528;23;20016;-82
2022/09/24 13:01:54;;;;;;;5.47;1.60;;;15.40;99.90;;;;;;6216376;23;20013;-82
2022/09/24 13:04:19;;;;;;;4.10;1.52;;;15.30;99.90;;;;;;6215391;23;20483;-82
2022/09/24 13:06:47;;;;;;;6.43;1.70;;;15.20;99.90;;;;;;6189738;23;20044;-82
2022/09/24 13:09:39;;;;;;;5.80;2.10;;;15.20;99.90;;;;;;6189401;23;20398;-82
2022/09/24 13:12:14;;;;;;;9.77;2.10;;;15.10;99.90;;;;;;6213952;22;20368;-81
2022/09/24 13:14:45;;;;;;;9.20;2.08;;;15.10;99.90;;;;;;6216924;23;20337;-81
2022/09/24 13:17:14;;;;;;;7.80;1.80;;;15.00;99.90;;;;;;6215756;23;20016;-81
2022/09/24 13:19:43;;;;;;;9.30;2.00;;;15.00;99.90;;;;;;6188741;23;20444;-81
2022/09/24 13:22:26;;;;;;;6.90;1.90;;;15.10;99.90;;;;;;6215675;23;20028;-81
2022/09/24 13:25:48;;;;;;;8.85;2.00;;;15.20;99.90;;;;;;6186634;22;20520;-81
2022/09/24 13:28:28;;;;;;;8.15;2.47;;;15.30;99.90;;;;;;6189213;23;20391;-81
2022/09/24 13:31:07;;;;;;;7.22;2.13;;;15.30;99.90;;;;;;6189909;23;20063;-81
2022/09/24 13:33:39;;;;;;;6.80;2.03;;;15.40;99.90;;;;;;6188806;23;20021;-81
2022/09/24 13:36:22;;;;;;;7.15;2.20;;;15.50;99.90;;;;;;6216594;23;20028;-81
2022/09/24 13:39:15;;;;;;;10.35;2.33;;;15.40;99.90;;;;;;6188602;23;20016;-81
2022/09/24 13:42:05;;;;;;;12.18;2.20;;;15.30;99.90;;;;;;6216376;23;20092;-81
2022/09/24 13:44:43;;;;;;;7.15;2.10;;;15.20;99.90;;;;;;6216319;23;20441;-81